createdAt,value
2019-04-07T00:00:05.235Z,57.13
2019-04-07T00:02:34.622Z,57.13
2019-04-07T00:05:11.142Z,57.29
2019-04-07T00:07:34.623Z,57.58
2019-04-07T00:10:03.922Z,57.66
2019-04-07T00:12:32.923Z,57.80
2019-04-07T00:15:01.983Z,57.93
2019-04-07T00:17:31.165Z,57.96
2019-04-07T00:20:00.661Z,57.90
2019-04-07T00:22:29.935Z,57.73
2019-04-07T00:24:59.528Z,57.54
2019-04-07T00:27:28.773Z,57.66
2019-04-07T00:29:57.969Z,57.91
2019-04-07T00:32:27.366Z,58.08
2019-04-07T00:34:56.880Z,58.29
2019-04-07T00:37:26.232Z,58.28
2019-04-07T00:39:55.409Z,58.55
2019-04-07T00:42:24.743Z,58.48
2019-04-07T00:44:54.188Z,58.76
2019-04-07T00:47:23.432Z,58.99
2019-04-07T00:49:52.491Z,59.12
2019-04-07T00:52:23.665Z,59.11
2019-04-07T00:54:53.446Z,59.23
2019-04-07T00:57:22.598Z,59.23
2019-04-07T00:59:51.605Z,59.33
2019-04-07T01:02:21.308Z,59.29
2019-04-07T01:04:50.639Z,59.42
2019-04-07T01:07:20.133Z,59.53
2019-04-07T01:09:49.508Z,59.67
2019-04-07T01:12:19.195Z,59.75
2019-04-07T01:14:49.010Z,59.99
2019-04-07T01:17:18.138Z,60.08
2019-04-07T01:19:47.175Z,60.21
2019-04-07T01:22:16.559Z,60.18
2019-04-07T01:24:45.793Z,60.33
2019-04-07T01:27:14.853Z,60.52
2019-04-07T01:29:44.227Z,60.59
2019-04-07T01:32:13.788Z,60.70
2019-04-07T01:34:42.811Z,60.64
2019-04-07T01:37:12.182Z,60.77
2019-04-07T01:39:41.224Z,60.88
2019-04-07T01:42:30.802Z,60.94
2019-04-07T01:45:15.951Z,61.01
2019-04-07T01:48:01.116Z,60.73
2019-04-07T01:50:48.157Z,60.91
2019-04-07T01:53:27.021Z,61.16
2019-04-07T01:56:05.497Z,61.25
2019-04-07T01:58:59.411Z,61.41
2019-04-07T02:01:48.058Z,61.38
2019-04-07T02:04:29.242Z,61.35
2019-04-07T02:07:20.483Z,61.47
2019-04-07T02:10:00.087Z,61.43
2019-04-07T02:12:40.135Z,61.59
2019-04-07T02:15:17.349Z,61.60
2019-04-07T02:18:05.991Z,61.57
2019-04-07T02:20:54.194Z,61.83
2019-04-07T02:23:45.045Z,62.00
2019-04-07T02:26:24.045Z,62.17
2019-04-07T02:29:00.759Z,62.38
2019-04-07T02:32:04.263Z,62.19
2019-04-07T02:34:42.863Z,62.42
2019-04-07T02:37:29.483Z,62.59
2019-04-07T02:40:20.064Z,62.70
2019-04-07T02:43:08.524Z,62.84
2019-04-07T02:46:02.639Z,63.09
2019-04-07T02:48:55.155Z,63.31
2019-04-07T02:51:36.630Z,63.30
2019-04-07T02:54:23.462Z,63.38
2019-04-07T02:57:03.631Z,63.34
2019-04-07T03:00:09.884Z,63.32
2019-04-07T03:02:47.725Z,63.37
2019-04-07T03:05:26.755Z,63.44
2019-04-07T03:08:27.091Z,63.44
2019-04-07T03:11:16.057Z,63.62
2019-04-07T03:14:12.285Z,63.51
2019-04-07T03:17:00.646Z,63.71
2019-04-07T03:19:57.816Z,63.85
2019-04-07T03:22:45.952Z,63.80
2019-04-07T03:25:36.865Z,63.99
2019-04-07T03:28:28.258Z,64.18
2019-04-07T03:31:27.373Z,64.30
2019-04-07T03:34:11.631Z,64.34
2019-04-07T03:37:30.589Z,64.49
2019-04-07T03:40:08.545Z,64.40
2019-04-07T03:43:14.249Z,64.42
2019-04-07T03:45:53.770Z,64.53
2019-04-07T03:48:31.680Z,64.69
2019-04-07T03:51:21.057Z,64.89
2019-04-07T03:54:05.064Z,64.86
2019-04-07T03:56:46.277Z,64.97
2019-04-07T03:59:37.096Z,65.11
2019-04-07T04:02:31.682Z,65.27
2019-04-07T04:05:19.717Z,65.46
2019-04-07T04:07:57.989Z,65.53
2019-04-07T04:10:40.808Z,65.50
2019-04-07T04:13:44.547Z,65.59
2019-04-07T04:16:18.061Z,65.59
2019-04-07T04:18:47.196Z,65.58
2019-04-07T04:21:16.418Z,65.71
2019-04-07T04:23:45.747Z,65.68
2019-04-07T04:26:15.144Z,65.83
2019-04-07T04:28:44.337Z,65.85
2019-04-07T04:31:14.074Z,65.89
2019-04-07T04:33:44.033Z,66.06
2019-04-07T04:36:13.523Z,66.11
2019-04-07T04:38:42.813Z,66.28
2019-04-07T04:41:12.018Z,66.25
2019-04-07T04:43:41.012Z,66.38
2019-04-07T04:46:11.417Z,66.46
2019-04-07T04:48:41.001Z,66.62
2019-04-07T04:51:10.201Z,66.73
2019-04-07T04:53:39.347Z,66.87
2019-04-07T04:56:08.449Z,66.98
2019-04-07T04:58:38.133Z,67.17
2019-04-07T05:01:07.365Z,67.23
2019-04-07T05:03:36.341Z,67.49
2019-04-07T05:06:05.412Z,67.66
2019-04-07T05:08:34.398Z,67.78
2019-04-07T05:11:03.504Z,67.84
2019-04-07T05:13:32.980Z,67.95
2019-04-07T05:16:02.698Z,68.08
2019-04-07T05:18:32.374Z,68.06
2019-04-07T05:21:01.451Z,68.16
2019-04-07T05:23:30.686Z,68.30
2019-04-07T05:26:00.381Z,68.45
2019-04-07T05:28:32.105Z,68.57
2019-04-07T05:31:00.309Z,68.72
2019-04-07T05:33:29.384Z,68.77
2019-04-07T05:35:58.385Z,68.89
2019-04-07T05:38:27.427Z,69.02
2019-04-07T05:40:56.485Z,69.11
2019-04-07T05:43:26.051Z,69.03
2019-04-07T05:45:55.494Z,68.93
2019-04-07T05:48:24.927Z,68.89
2019-04-07T05:50:57.922Z,69.06
2019-04-07T05:53:25.394Z,69.16
2019-04-07T05:55:55.555Z,69.29
2019-04-07T05:58:25.281Z,69.49
2019-04-07T06:00:54.733Z,69.64
2019-04-07T06:03:23.802Z,69.78
2019-04-07T06:05:52.874Z,69.87
2019-04-07T06:08:29.134Z,69.95
2019-04-07T06:10:57.501Z,70.20
2019-04-07T06:13:23.676Z,70.43
2019-04-07T06:15:53.236Z,70.59
2019-04-07T06:18:22.872Z,70.66
2019-04-07T06:20:52.080Z,70.64
2019-04-07T06:23:23.408Z,70.65
2019-04-07T06:25:52.349Z,70.63
2019-04-07T06:28:21.424Z,70.61
2019-04-07T06:30:50.581Z,70.59
2019-04-07T06:33:19.920Z,70.57
2019-04-07T06:35:49.019Z,70.47
2019-04-07T06:38:29.564Z,70.36
2019-04-07T06:40:50.841Z,70.23
2019-04-07T06:43:20.315Z,70.03
2019-04-07T06:45:57.367Z,69.94
2019-04-07T06:48:26.718Z,69.73
2019-04-07T06:51:03.874Z,69.58
2019-04-07T06:53:46.768Z,69.48
2019-04-07T06:56:24.309Z,69.37
2019-04-07T06:59:21.982Z,69.30
2019-04-07T07:02:08.661Z,69.18
2019-04-07T07:04:56.100Z,69.08
2019-04-07T07:07:53.268Z,69.01
2019-04-07T07:10:54.140Z,68.84
2019-04-07T07:13:52.008Z,68.78
2019-04-07T07:16:31.786Z,68.76
2019-04-07T07:19:19.693Z,68.70
2019-04-07T07:22:12.622Z,68.55
2019-04-07T07:24:37.219Z,68.50
2019-04-07T07:27:09.389Z,68.64
2019-04-07T07:29:37.088Z,68.78
2019-04-07T07:32:06.454Z,68.79
2019-04-07T07:34:35.858Z,68.88
2019-04-07T07:37:05.261Z,68.82
2019-04-07T07:39:34.203Z,68.80
2019-04-07T07:42:04.022Z,68.66
2019-04-07T07:44:36.082Z,68.63
2019-04-07T07:47:04.144Z,68.64
2019-04-07T07:49:35.161Z,68.74
2019-04-07T07:52:03.876Z,68.72
2019-04-07T07:54:33.462Z,68.64
2019-04-07T07:57:02.657Z,68.71
2019-04-07T07:59:37.652Z,68.63
2019-04-07T08:02:03.373Z,68.65
2019-04-07T08:04:33.403Z,68.55
2019-04-07T08:07:02.752Z,69.24
2019-04-07T08:09:31.808Z,69.09
2019-04-07T08:12:03.288Z,69.54
2019-04-07T08:14:32.437Z,69.30
2019-04-07T08:17:03.453Z,68.66
2019-04-07T08:19:32.996Z,69.07
2019-04-07T08:22:03.024Z,68.35
2019-04-07T08:24:32.704Z,67.82
2019-04-07T08:27:02.004Z,67.46
2019-04-07T08:29:31.063Z,66.85
2019-04-07T08:32:00.244Z,67.27
2019-04-07T08:34:31.540Z,67.05
2019-04-07T08:37:00.873Z,66.93
2019-04-07T08:39:34.105Z,65.69
2019-04-07T08:42:09.291Z,65.34
2019-04-07T08:44:35.614Z,64.28
2019-04-07T08:47:04.824Z,63.08
2019-04-07T08:49:35.403Z,63.59
2019-04-07T08:52:09.089Z,63.00
2019-04-07T08:54:35.641Z,62.97
2019-04-07T08:57:04.738Z,62.33
2019-04-07T08:59:33.804Z,62.49
2019-04-07T09:02:03.194Z,62.91
2019-04-07T09:04:32.349Z,61.28
2019-04-07T09:07:02.981Z,60.57
2019-04-07T09:09:35.999Z,59.92
2019-04-07T09:12:03.065Z,59.14
2019-04-07T09:14:32.151Z,58.98
2019-04-07T09:17:30.974Z,58.94
2019-04-07T09:20:15.631Z,58.82
2019-04-07T09:22:51.457Z,58.31
2019-04-07T09:25:42.862Z,58.25
2019-04-07T09:28:31.502Z,56.61
2019-04-07T09:31:21.972Z,56.58
2019-04-07T09:34:09.154Z,54.85
2019-04-07T09:37:06.950Z,54.60
2019-04-07T09:39:59.198Z,53.47
2019-04-07T09:42:48.345Z,50.98
2019-04-07T09:45:38.508Z,51.17
2019-04-07T09:48:13.641Z,50.59
2019-04-07T09:51:05.121Z,50.78
2019-04-07T09:53:50.369Z,49.86
2019-04-07T09:56:40.668Z,48.97
2019-04-07T09:59:21.757Z,49.59
2019-04-07T10:02:16.155Z,49.36
2019-04-07T10:05:16.145Z,49.85
2019-04-07T10:08:05.501Z,49.14
2019-04-07T10:10:52.614Z,46.90
2019-04-07T10:13:32.732Z,46.33
2019-04-07T10:16:31.909Z,47.28
2019-04-07T10:19:11.662Z,46.22
2019-04-07T10:21:56.644Z,46.19
2019-04-07T10:25:02.808Z,43.74
2019-04-07T10:27:49.571Z,44.06
2019-04-07T10:30:27.805Z,43.95
2019-04-07T10:33:14.744Z,43.13
2019-04-07T10:36:12.123Z,44.58
2019-04-07T10:39:06.230Z,43.41
2019-04-07T10:41:54.339Z,42.51
2019-04-07T10:44:42.379Z,43.43
2019-04-07T10:47:19.439Z,42.81
2019-04-07T10:50:05.587Z,42.41
2019-04-07T10:52:43.796Z,42.17
2019-04-07T10:55:26.543Z,41.13
2019-04-07T10:58:04.230Z,41.17
2019-04-07T11:01:07.783Z,41.33
2019-04-07T11:03:53.479Z,40.78
2019-04-07T11:06:31.595Z,41.74
2019-04-07T11:09:26.648Z,41.10
2019-04-07T11:12:06.414Z,39.81
2019-04-07T11:14:55.942Z,39.31
2019-04-07T11:17:35.634Z,40.07
2019-04-07T11:20:22.682Z,40.77
2019-04-07T11:23:00.940Z,39.19
2019-04-07T11:25:46.210Z,39.37
2019-04-07T11:28:37.979Z,38.41
2019-04-07T11:31:27.815Z,38.58
2019-04-07T11:34:16.026Z,39.00
2019-04-07T11:37:01.702Z,39.26
2019-04-07T11:39:46.439Z,39.48
2019-04-07T11:42:37.490Z,38.93
2019-04-07T11:45:53.266Z,38.64
2019-04-07T11:48:31.870Z,36.93
2019-04-07T11:51:32.471Z,37.52
2019-04-07T11:54:07.737Z,38.19
2019-04-07T11:57:01.719Z,37.97
2019-04-07T12:00:00.018Z,37.96
2019-04-07T12:02:35.224Z,38.08
2019-04-07T12:05:35.537Z,38.71
2019-04-07T12:08:24.585Z,38.75
2019-04-07T12:11:22.231Z,38.20
2019-04-07T12:14:09.457Z,36.95
2019-04-07T12:16:58.428Z,37.33
2019-04-07T12:19:33.292Z,37.52
2019-04-07T12:22:20.298Z,37.55
2019-04-07T12:25:07.417Z,36.74
2019-04-07T12:28:05.412Z,35.96
2019-04-07T12:30:43.722Z,35.69
2019-04-07T12:33:37.454Z,34.07
2019-04-07T12:36:38.724Z,35.05
2019-04-07T12:39:33.026Z,33.84
2019-04-07T12:42:11.323Z,34.20
2019-04-07T12:44:47.495Z,34.54
2019-04-07T12:47:23.731Z,34.97
2019-04-07T12:50:24.087Z,34.61
2019-04-07T12:53:02.409Z,32.95
2019-04-07T12:56:00.123Z,32.01
2019-04-07T12:58:48.718Z,31.34
2019-04-07T13:01:49.650Z,30.94
2019-04-07T13:04:36.981Z,32.09
2019-04-07T13:07:29.131Z,30.05
2019-04-07T13:10:12.014Z,30.81
2019-04-07T13:12:59.462Z,31.52
2019-04-07T13:15:49.848Z,30.60
2019-04-07T13:18:42.381Z,31.50
2019-04-07T13:21:28.999Z,31.10
2019-04-07T13:24:31.109Z,30.19
2019-04-07T13:27:16.835Z,29.99
2019-04-07T13:30:04.049Z,28.48
2019-04-07T13:32:58.130Z,29.17
2019-04-07T13:35:51.831Z,30.05
2019-04-07T13:38:37.157Z,28.13
2019-04-07T13:41:23.777Z,28.11
2019-04-07T13:44:30.401Z,28.13
2019-04-07T13:47:15.861Z,27.50
2019-04-07T13:50:06.809Z,27.59
2019-04-07T13:52:44.337Z,28.06
2019-04-07T13:55:24.594Z,27.46
2019-04-07T13:58:09.811Z,27.92
2019-04-07T14:01:00.850Z,27.86
2019-04-07T14:03:37.075Z,26.25
2019-04-07T14:06:25.180Z,27.00
2019-04-07T14:09:16.938Z,26.73
2019-04-07T14:12:11.588Z,26.48
2019-04-07T14:14:57.044Z,26.20
2019-04-07T14:18:01.140Z,26.26
2019-04-07T14:20:37.629Z,26.50
2019-04-07T14:23:25.688Z,25.36
2019-04-07T14:26:23.313Z,25.50
2019-04-07T14:31:59.293Z,26.33
2019-04-07T14:34:58.701Z,26.21
2019-04-07T14:37:39.553Z,24.99
2019-04-07T14:40:27.965Z,25.19
2019-04-07T14:43:21.899Z,25.89
2019-04-07T14:46:13.119Z,25.82
2019-04-07T14:49:07.713Z,25.70
2019-04-07T14:51:56.042Z,25.38
2019-04-07T14:54:42.782Z,25.38
2019-04-07T14:57:30.904Z,24.73
2019-04-07T15:00:20.311Z,24.90
2019-04-07T15:02:49.897Z,24.97
2019-04-07T15:05:25.289Z,24.31
2019-04-07T15:08:10.514Z,24.75
2019-04-07T15:10:43.285Z,24.93
2019-04-07T15:13:23.953Z,25.28
2019-04-07T15:15:51.823Z,25.70
2019-04-07T15:18:21.763Z,25.67
2019-04-07T15:20:51.664Z,24.77
2019-04-07T15:23:21.597Z,25.08
2019-04-07T15:25:51.573Z,25.49
2019-04-07T15:28:21.547Z,25.94
2019-04-07T15:30:51.766Z,25.94
2019-04-07T15:33:21.166Z,25.80
2019-04-07T15:35:50.725Z,26.26
2019-04-07T15:38:23.793Z,26.41
2019-04-07T15:40:51.724Z,26.99
2019-04-07T15:43:21.158Z,27.18
2019-04-07T15:45:50.297Z,27.36
2019-04-07T15:48:21.434Z,27.14
2019-04-07T15:50:50.178Z,27.39
2019-04-07T15:53:19.837Z,27.44
2019-04-07T15:55:57.275Z,27.79
2019-04-07T15:58:20.460Z,28.30
2019-04-07T16:00:49.635Z,28.61
2019-04-07T16:03:19.229Z,28.57
2019-04-07T16:05:49.040Z,28.66
2019-04-07T16:08:18.137Z,29.06
2019-04-07T16:10:47.785Z,29.37
2019-04-07T16:13:17.387Z,29.50
2019-04-07T16:15:50.989Z,29.62
2019-04-07T16:18:17.405Z,29.19
2019-04-07T16:20:46.527Z,29.13
2019-04-07T16:23:18.317Z,29.18
2019-04-07T16:25:46.422Z,29.56
2019-04-07T16:28:16.184Z,29.27
2019-04-07T16:30:49.001Z,29.24
2019-04-07T16:33:16.390Z,29.30
2019-04-07T16:35:51.085Z,29.50
2019-04-07T16:38:17.407Z,29.53
2019-04-07T16:40:46.751Z,29.71
2019-04-07T16:43:17.752Z,29.75
2019-04-07T16:45:47.215Z,29.89
2019-04-07T16:48:16.251Z,30.15
2019-04-07T16:50:46.382Z,30.57
2019-04-07T16:53:16.393Z,30.67
2019-04-07T16:55:48.969Z,30.72
2019-04-07T16:58:16.332Z,30.84
2019-04-07T17:00:45.439Z,31.04
2019-04-07T17:03:15.408Z,31.16
2019-04-07T17:05:45.080Z,31.18
2019-04-07T17:08:17.684Z,31.44
2019-04-07T17:10:45.420Z,31.82
2019-04-07T17:13:20.101Z,31.67
2019-04-07T17:15:45.352Z,31.54
2019-04-07T17:18:36.979Z,31.58
2019-04-07T17:21:11.741Z,31.58
2019-04-07T17:23:40.855Z,31.72
2019-04-07T17:26:10.051Z,31.81
2019-04-07T17:28:40.044Z,31.78
2019-04-07T17:31:10.908Z,32.06
2019-04-07T17:33:41.544Z,32.30
2019-04-07T17:36:15.388Z,32.72
2019-04-07T17:38:58.383Z,32.88
2019-04-07T17:41:27.606Z,33.18
2019-04-07T17:44:17.615Z,33.30
2019-04-07T17:47:02.717Z,33.39
2019-04-07T17:49:50.977Z,33.24
2019-04-07T17:52:36.449Z,33.80
2019-04-07T17:55:16.303Z,34.02
2019-04-07T17:57:53.575Z,34.30
2019-04-07T18:00:47.616Z,34.66
2019-04-07T18:03:29.187Z,34.69
2019-04-07T18:06:16.714Z,35.24
2019-04-07T18:09:12.018Z,35.59
2019-04-07T18:11:49.187Z,36.02
2019-04-07T18:14:33.046Z,36.34
2019-04-07T18:17:33.512Z,36.25
2019-04-07T18:20:20.574Z,36.70
2019-04-07T18:23:08.642Z,37.15
2019-04-07T18:25:56.847Z,36.96
2019-04-07T18:28:45.342Z,37.14
2019-04-07T18:31:36.179Z,37.43
2019-04-07T18:34:25.036Z,37.77
2019-04-07T18:37:06.960Z,38.13
2019-04-07T18:39:58.089Z,38.70
2019-04-07T18:42:46.728Z,38.79
2019-04-07T18:45:29.650Z,38.30
2019-04-07T18:48:13.596Z,38.39
2019-04-07T18:51:05.998Z,38.71
2019-04-07T18:53:44.127Z,38.79
2019-04-07T18:56:22.683Z,39.14
2019-04-07T18:58:57.842Z,39.15
2019-04-07T19:01:49.940Z,39.60
2019-04-07T19:04:28.159Z,40.10
2019-04-07T19:07:05.697Z,40.49
2019-04-07T19:10:03.718Z,40.88
2019-04-07T19:12:47.745Z,40.88
2019-04-07T19:15:37.073Z,40.83
2019-04-07T19:18:22.833Z,41.07
2019-04-07T19:21:11.051Z,41.35
2019-04-07T19:23:58.661Z,41.57
2019-04-07T19:26:54.468Z,41.59
2019-04-07T19:29:53.200Z,41.43
2019-04-07T19:32:41.227Z,41.54
2019-04-07T19:35:43.085Z,41.82
2019-04-07T19:38:43.378Z,42.18
2019-04-07T19:41:23.240Z,42.53
2019-04-07T19:43:58.475Z,42.83
2019-04-07T19:46:46.077Z,43.25
2019-04-07T19:49:34.712Z,43.36
2019-04-07T19:52:36.217Z,43.80
2019-04-07T19:55:15.788Z,43.75
2019-04-07T19:58:00.950Z,43.83
2019-04-07T20:00:54.993Z,44.02
2019-04-07T20:03:40.593Z,44.37
2019-04-07T20:06:46.892Z,44.39
2019-04-07T20:09:44.100Z,44.48
2019-04-07T20:12:14.388Z,44.78
2019-04-07T20:15:03.026Z,44.97
2019-04-07T20:17:40.991Z,45.21
2019-04-07T20:20:33.556Z,45.27
2019-04-07T20:23:17.387Z,45.37
2019-04-07T20:26:01.636Z,45.67
2019-04-07T20:29:03.155Z,45.76
2019-04-07T20:31:53.375Z,46.13
2019-04-07T20:34:40.100Z,46.14
2019-04-07T20:37:23.755Z,46.36
2019-04-07T20:40:17.250Z,46.66
2019-04-07T20:43:14.406Z,47.00
2019-04-07T20:45:53.797Z,47.21
2019-04-07T20:48:47.984Z,47.45
2019-04-07T20:51:48.033Z,46.99
2019-04-07T20:54:42.173Z,46.73
2019-04-07T20:57:28.639Z,46.39
2019-04-07T21:00:16.517Z,46.46
2019-04-07T21:03:14.406Z,46.34
2019-04-07T21:05:40.064Z,46.26
2019-04-07T21:08:23.316Z,46.26
2019-04-07T21:11:15.228Z,46.14
2019-04-07T21:14:09.286Z,46.33
2019-04-07T21:17:03.887Z,46.77
2019-04-07T21:19:51.695Z,47.22
2019-04-07T21:22:27.497Z,47.87
2019-04-07T21:25:19.462Z,48.25
2019-04-07T21:28:08.959Z,48.30
2019-04-07T21:30:53.656Z,48.73
2019-04-07T21:33:37.268Z,49.00
2019-04-07T21:36:21.836Z,49.17
2019-04-07T21:39:21.914Z,49.24
2019-04-07T21:42:08.147Z,49.14
2019-04-07T21:44:50.126Z,48.96
2019-04-07T21:47:36.946Z,48.86
2019-04-07T21:50:38.410Z,48.79
2019-04-07T21:53:32.135Z,48.62
2019-04-07T21:56:11.391Z,48.73
2019-04-07T21:58:59.271Z,48.65
2019-04-07T22:01:48.707Z,48.83
2019-04-07T22:04:30.138Z,49.24
2019-04-07T22:07:09.072Z,49.62
2019-04-07T22:09:42.852Z,49.44
2019-04-07T22:12:12.666Z,49.36
2019-04-07T22:14:43.056Z,49.70
2019-04-07T22:17:12.618Z,50.08
2019-04-07T22:19:45.130Z,50.31
2019-04-07T22:22:12.334Z,50.53
2019-04-07T22:24:42.226Z,50.69
2019-04-07T22:27:11.332Z,50.64
2019-04-07T22:29:40.389Z,50.79
2019-04-07T22:32:09.470Z,50.72
2019-04-07T22:34:38.532Z,51.01
2019-04-07T22:37:07.605Z,51.26
2019-04-07T22:39:37.508Z,51.46
2019-04-07T22:42:06.620Z,51.88
2019-04-07T22:44:35.676Z,51.77
2019-04-07T22:47:04.989Z,51.51
2019-04-07T22:49:34.010Z,51.54
2019-04-07T22:52:03.528Z,51.69
2019-04-07T22:54:32.869Z,51.67
2019-04-07T22:57:02.842Z,51.58
2019-04-07T22:59:32.254Z,51.64
2019-04-07T23:02:01.330Z,51.90
2019-04-07T23:04:30.377Z,52.01
2019-04-07T23:06:59.437Z,51.97
2019-04-07T23:09:29.888Z,51.50
2019-04-07T23:12:00.777Z,51.65
2019-04-07T23:14:29.852Z,51.76
2019-04-07T23:16:58.904Z,51.66
2019-04-07T23:19:27.983Z,51.87
2019-04-07T23:21:57.574Z,51.94
2019-04-07T23:24:26.787Z,52.03
2019-04-07T23:26:56.476Z,52.17
2019-04-07T23:29:26.192Z,52.24
2019-04-07T23:31:55.583Z,52.33
2019-04-07T23:34:25.426Z,52.34
2019-04-07T23:36:54.414Z,52.34
2019-04-07T23:39:23.481Z,52.61
2019-04-07T23:41:53.263Z,52.64
2019-04-07T23:44:23.446Z,52.81
2019-04-07T23:46:53.018Z,52.56
2019-04-07T23:49:22.539Z,52.60
2019-04-07T23:51:51.593Z,52.87
2019-04-07T23:54:20.660Z,52.88
2019-04-07T23:56:49.902Z,52.64
2019-04-07T23:59:19.095Z,52.85
